Pomorze — C6WU2 — position and weather

sailwx.info

Track history (hours):
 
Tides and Currents Weather Stations Pressure Air Temp Water Temp Dewpoint Dewpoint Depression Visibility Wind Speed Wind Dir Waves Ship Positions

Pomorze

Last reported at 2017-Sep-17 23:00 UTC. Time now 2017-Sep-21 16:18 UTC.
Position N 55°15' E 016°57'.

Length 189 m; draft 6.3 m.

Type: Cargo ship. MMSI: 311358000.

Date/timePositionNaut miles runAvg speedWind from/ knotsBaromVisibWave heightAir tempDewpointWater temp
2017-Sep-17 23:00N 55°15' E 016°57'12710.8
2017-Sep-17 11:12N 53°40' E 014°32'310.6
2017-Sep-17 10:57N 53°38' E 014°35'4 9.1
2017-Sep-17 10:30N 53°34' E 014°36'  
2017-Sep-13 06:43N 53°34' E 014°35'0 0.4
2017-Sep-13 06:30N 53°34' E 014°35'0 1.0
2017-Sep-13 06:00N 53°34' E 014°36'3 5.9
2017-Sep-13 05:30N 53°37' E 014°35'4 8.2
2017-Sep-13 05:00N 53°40' E 014°31'4 7.7
2017-Sep-13 04:30N 53°44' E 014°27'66 5.1
2017-Sep-12 15:25N 54°43' E 013°35'2511.6
2017-Sep-12 13:18N 54°45' E 012°53'311.7
2017-Sep-12 13:01N 54°45' E 012°47'612.1
2017-Sep-12 12:31N 54°42' E 012°37'612.4
2017-Sep-12 12:01N 54°39' E 012°28'612.2
2017-Sep-12 11:31N 54°36' E 012°20'1111.8
2017-Sep-12 10:37N 54°26' E 012°12'1211.7
2017-Sep-12 09:36N 54°25' E 011°52'112.1
2017-Sep-12 09:29N 54°25' E 011°50'612.1
2017-Sep-12 09:00N 54°27' E 011°40'612.5
2017-Sep-12 08:31N 54°30' E 011°31'612.0
2017-Sep-12 08:00N 54°32' E 011°21'611.9
2017-Sep-12 07:30N 54°35' E 011°12'611.9
2017-Sep-12 07:00N 54°38' E 011°03'612.0
2017-Sep-12 06:31N 54°41' E 010°55'510.5
2017-Sep-12 06:00N 54°46' E 010°51'510.7
2017-Sep-12 05:31N 54°51' E 010°52'510.5
2017-Sep-12 05:01N 54°56' E 010°56'510.9
2017-Sep-12 04:31N 55°01' E 011°01'510.4
2017-Sep-12 04:00N 55°06' E 011°02'510.1
2017-Sep-12 03:30N 55°11' E 011°04'5 9.8
2017-Sep-12 03:01N 55°16' E 011°05'510.5
2017-Sep-12 02:30N 55°21' E 011°02'111 9.8
2017-Sep-11 15:15N 57°10' E 011°37'411.2
2017-Sep-11 14:55N 57°13' E 011°34'410.6
2017-Sep-11 14:30N 57°17' E 011°31'510.5
2017-Sep-11 14:00N 57°22' E 011°28'510.5
2017-Sep-11 13:31N 57°27' E 011°25'510.7
2017-Sep-11 13:00N 57°31' E 011°19'510.9
2017-Sep-11 12:31N 57°35' E 011°11'611.5
2017-Sep-11 12:00N 57°39' E 011°02'611.9
2017-Sep-11 11:29N 57°43' E 010°54'611.7
2017-Sep-11 11:00N 57°46' E 010°46'612.9
2017-Sep-11 10:30N 57°47' E 010°34'713.6
2017-Sep-11 10:00N 57°47' E 010°21'34912.3
2017-Sep-10 05:40N 53°03' E 004°24'214.1
2017-Sep-10 05:30N 53°01' E 004°22'714.0
2017-Sep-10 05:00N 52°55' E 004°17'713.7
2017-Sep-10 04:30N 52°49' E 004°11'713.6
2017-Sep-10 04:00N 52°44' E 004°04'713.3
2017-Sep-10 03:30N 52°39' E 003°57'713.0
2017-Sep-10 03:00N 52°34' E 003°49'7711.3
2017-Sep-09 20:10N 51°37' E 002°25'211.6
2017-Sep-09 20:00N 51°36' E 002°23'611.9
2017-Sep-09 19:30N 51°31' E 002°17'612.0
2017-Sep-09 19:00N 51°26' E 002°11'611.9
2017-Sep-09 18:30N 51°21' E 002°08'611.4
2017-Sep-09 18:00N 51°15' E 002°05'612.7
2017-Sep-09 17:30N 51°12' E 001°57'713.3
2017-Sep-09 17:00N 51°08' E 001°47'714.0
2017-Sep-09 16:30N 51°03' E 001°40'714.3
2017-Sep-09 16:00N 50°58' E 001°32'714.2
2017-Sep-09 15:30N 50°52' E 001°26'4912.8
2017-Sep-09 11:42N 50°22' E 000°25'314.2
2017-Sep-09 11:28N 50°21' E 000°20'714.6
2017-Sep-09 11:00N 50°20' E 000°10'714.9
2017-Sep-09 10:30N 50°18' W 000°02'714.2
2017-Sep-09 10:00N 50°17' W 000°13'2414.9
2017-Sep-09 08:23N 50°10' W 000°48'514.2
2017-Sep-09 08:01N 50°09' W 000°57'713.7
2017-Sep-09 07:30N 50°07' W 001°07'613.0
2017-Sep-09 07:00N 50°05' W 001°17'612.0
2017-Sep-09 06:30N 50°04' W 001°26'611.0
2017-Sep-09 06:00N 50°02' W 001°34'510.1
2017-Sep-09 05:31N 50°00' W 001°41'4 8.9
2017-Sep-09 05:01N 49°60' W 001°48'4 8.8
2017-Sep-09 04:30N 49°59' W 001°55'4 8.2
2017-Sep-09 04:00N 49°58' W 002°01'5 7.8
2017-Sep-09 03:24N 49°57' W 002°08'3 7.8
2017-Sep-09 02:59N 49°56' W 002°13'14 9.1
2017-Sep-09 01:27N 49°53' W 002°34'510.6
2017-Sep-09 01:00N 49°51' W 002°41'511.0
2017-Sep-09 00:30N 49°50' W 002°49'611.4
2017-Sep-09 00:00N 49°48' W 002°57'611.7
2017-Sep-08 23:30N 49°45' W 003°05'611.9
2017-Sep-08 23:00N 49°42' W 003°13'612.1
2017-Sep-08 22:30N 49°39' W 003°21'612.1
2017-Sep-08 22:00N 49°35' W 003°29'912.3
2017-Sep-08 21:18N 49°31' W 003°41'412.4
2017-Sep-08 20:56N 49°29' W 003°47'812.8
2017-Sep-08 20:20N 49°25' W 003°57'17910.8
2017-Sep-08 03:48N 47°09' W 006°52'1311.7
2017-Sep-08 02:43N 46°58' W 007°01'  
Track history (hours):
 
Tides and Currents Weather Stations Pressure Air Temp Water Temp Dewpoint Dewpoint Depression Visibility Wind Speed Wind Dir Waves Ship Positions

Pomorze

Last reported at 2017-Sep-17 23:00 UTC. Time now 2017-Sep-21 16:18 UTC.
Position N 55°15' E 016°57'.

Length 189 m; draft 6.3 m.

Type: Cargo ship. MMSI: 311358000.

Date/timePositionNaut miles runAvg speedWind from/ knotsBaromVisibWave heightAir tempDewpointWater temp
2017-Sep-17 23:00N 55°15' E 016°57'12710.8
2017-Sep-17 11:12N 53°40' E 014°32'310.6
2017-Sep-17 10:57N 53°38' E 014°35'4 9.1
2017-Sep-17 10:30N 53°34' E 014°36'  
2017-Sep-13 06:43N 53°34' E 014°35'0 0.4
2017-Sep-13 06:30N 53°34' E 014°35'0 1.0
2017-Sep-13 06:00N 53°34' E 014°36'3 5.9
2017-Sep-13 05:30N 53°37' E 014°35'4 8.2
2017-Sep-13 05:00N 53°40' E 014°31'4 7.7
2017-Sep-13 04:30N 53°44' E 014°27'66 5.1
2017-Sep-12 15:25N 54°43' E 013°35'2511.6
2017-Sep-12 13:18N 54°45' E 012°53'311.7
2017-Sep-12 13:01N 54°45' E 012°47'612.1
2017-Sep-12 12:31N 54°42' E 012°37'612.4
2017-Sep-12 12:01N 54°39' E 012°28'612.2
2017-Sep-12 11:31N 54°36' E 012°20'1111.8
2017-Sep-12 10:37N 54°26' E 012°12'1211.7
2017-Sep-12 09:36N 54°25' E 011°52'112.1
2017-Sep-12 09:29N 54°25' E 011°50'612.1
2017-Sep-12 09:00N 54°27' E 011°40'612.5
2017-Sep-12 08:31N 54°30' E 011°31'612.0
2017-Sep-12 08:00N 54°32' E 011°21'611.9
2017-Sep-12 07:30N 54°35' E 011°12'611.9
2017-Sep-12 07:00N 54°38' E 011°03'612.0
2017-Sep-12 06:31N 54°41' E 010°55'510.5
2017-Sep-12 06:00N 54°46' E 010°51'510.7
2017-Sep-12 05:31N 54°51' E 010°52'510.5
2017-Sep-12 05:01N 54°56' E 010°56'510.9
2017-Sep-12 04:31N 55°01' E 011°01'510.4
2017-Sep-12 04:00N 55°06' E 011°02'510.1
2017-Sep-12 03:30N 55°11' E 011°04'5 9.8
2017-Sep-12 03:01N 55°16' E 011°05'510.5
2017-Sep-12 02:30N 55°21' E 011°02'111 9.8
2017-Sep-11 15:15N 57°10' E 011°37'411.2
2017-Sep-11 14:55N 57°13' E 011°34'410.6
2017-Sep-11 14:30N 57°17' E 011°31'510.5
2017-Sep-11 14:00N 57°22' E 011°28'510.5
2017-Sep-11 13:31N 57°27' E 011°25'510.7
2017-Sep-11 13:00N 57°31' E 011°19'510.9
2017-Sep-11 12:31N 57°35' E 011°11'611.5
2017-Sep-11 12:00N 57°39' E 011°02'611.9
2017-Sep-11 11:29N 57°43' E 010°54'611.7
2017-Sep-11 11:00N 57°46' E 010°46'612.9
2017-Sep-11 10:30N 57°47' E 010°34'713.6
2017-Sep-11 10:00N 57°47' E 010°21'34912.3
2017-Sep-10 05:40N 53°03' E 004°24'214.1
2017-Sep-10 05:30N 53°01' E 004°22'714.0
2017-Sep-10 05:00N 52°55' E 004°17'713.7
2017-Sep-10 04:30N 52°49' E 004°11'713.6
2017-Sep-10 04:00N 52°44' E 004°04'713.3
2017-Sep-10 03:30N 52°39' E 003°57'713.0
2017-Sep-10 03:00N 52°34' E 003°49'7711.3
2017-Sep-09 20:10N 51°37' E 002°25'211.6
2017-Sep-09 20:00N 51°36' E 002°23'611.9
2017-Sep-09 19:30N 51°31' E 002°17'612.0
2017-Sep-09 19:00N 51°26' E 002°11'611.9
2017-Sep-09 18:30N 51°21' E 002°08'611.4
2017-Sep-09 18:00N 51°15' E 002°05'612.7
2017-Sep-09 17:30N 51°12' E 001°57'713.3
2017-Sep-09 17:00N 51°08' E 001°47'714.0
2017-Sep-09 16:30N 51°03' E 001°40'714.3
2017-Sep-09 16:00N 50°58' E 001°32'714.2
2017-Sep-09 15:30N 50°52' E 001°26'4912.8
2017-Sep-09 11:42N 50°22' E 000°25'314.2
2017-Sep-09 11:28N 50°21' E 000°20'714.6
2017-Sep-09 11:00N 50°20' E 000°10'714.9
2017-Sep-09 10:30N 50°18' W 000°02'714.2
2017-Sep-09 10:00N 50°17' W 000°13'2414.9
2017-Sep-09 08:23N 50°10' W 000°48'514.2
2017-Sep-09 08:01N 50°09' W 000°57'713.7
2017-Sep-09 07:30N 50°07' W 001°07'613.0
2017-Sep-09 07:00N 50°05' W 001°17'612.0
2017-Sep-09 06:30N 50°04' W 001°26'611.0
2017-Sep-09 06:00N 50°02' W 001°34'510.1
2017-Sep-09 05:31N 50°00' W 001°41'4 8.9
2017-Sep-09 05:01N 49°60' W 001°48'4 8.8
2017-Sep-09 04:30N 49°59' W 001°55'4 8.2
2017-Sep-09 04:00N 49°58' W 002°01'5 7.8
2017-Sep-09 03:24N 49°57' W 002°08'3 7.8
2017-Sep-09 02:59N 49°56' W 002°13'14 9.1
2017-Sep-09 01:27N 49°53' W 002°34'510.6
2017-Sep-09 01:00N 49°51' W 002°41'511.0
2017-Sep-09 00:30N 49°50' W 002°49'611.4
2017-Sep-09 00:00N 49°48' W 002°57'611.7
2017-Sep-08 23:30N 49°45' W 003°05'611.9
2017-Sep-08 23:00N 49°42' W 003°13'612.1
2017-Sep-08 22:30N 49°39' W 003°21'612.1
2017-Sep-08 22:00N 49°35' W 003°29'912.3
2017-Sep-08 21:18N 49°31' W 003°41'412.4
2017-Sep-08 20:56N 49°29' W 003°47'812.8
2017-Sep-08 20:20N 49°25' W 003°57'17910.8
2017-Sep-08 03:48N 47°09' W 006°52'1311.7
2017-Sep-08 02:43N 46°58' W 007°01'  

Dump ship's entire track history